sensor_id;sensor_type;location;lat;lon;timestamp;P1;durP1;ratioP1;P2;durP2;ratioP2
20703;SDS011;62934;49.420;8.652;2023-09-08T19:13:45;9.10;;;6.80;;
20703;SDS011;62934;49.420;8.652;2023-09-08T19:16:11;8.43;;;7.53;;
20703;SDS011;62934;49.420;8.652;2023-09-08T19:18:37;9.75;;;7.40;;
20703;SDS011;62934;49.420;8.652;2023-09-08T19:21:02;10.02;;;8.05;;
20703;SDS011;62934;49.420;8.652;2023-09-08T19:23:28;10.23;;;7.07;;
20703;SDS011;62934;49.420;8.652;2023-09-08T19:25:54;9.90;;;7.13;;
20703;SDS011;62934;49.420;8.652;2023-09-08T19:28:19;8.63;;;7.65;;
20703;SDS011;62934;49.420;8.652;2023-09-08T19:30:46;9.45;;;7.07;;
20703;SDS011;62934;49.420;8.652;2023-09-08T19:33:12;13.18;;;7.78;;
20703;SDS011;62934;49.420;8.652;2023-09-08T19:35:39;9.98;;;8.02;;
20703;SDS011;62934;49.420;8.652;2023-09-08T19:38:05;9.48;;;7.60;;
20703;SDS011;62934;49.420;8.652;2023-09-08T19:40:31;7.85;;;7.05;;
20703;SDS011;62934;49.420;8.652;2023-09-08T19:42:57;8.73;;;7.60;;
20703;SDS011;62934;49.420;8.652;2023-09-08T19:45:22;7.78;;;6.80;;
20703;SDS011;62934;49.420;8.652;2023-09-08T19:47:49;9.45;;;7.25;;
20703;SDS011;62934;49.420;8.652;2023-09-08T19:50:14;8.23;;;6.80;;
20703;SDS011;62934;49.420;8.652;2023-09-08T19:52:40;8.85;;;7.10;;
20703;SDS011;62934;49.420;8.652;2023-09-08T19:55:06;10.05;;;6.75;;
20703;SDS011;62934;49.420;8.652;2023-09-08T19:57:33;9.02;;;6.90;;
20703;SDS011;62934;49.420;8.652;2023-09-08T19:59:59;9.65;;;7.22;;
20703;SDS011;62934;49.420;8.652;2023-09-08T20:02:25;9.73;;;6.68;;
20703;SDS011;62934;49.420;8.652;2023-09-08T20:04:50;10.68;;;6.97;;
20703;SDS011;62934;49.420;8.652;2023-09-08T20:07:16;8.23;;;7.03;;
20703;SDS011;62934;49.420;8.652;2023-09-08T20:09:41;7.75;;;6.70;;
20703;SDS011;62934;49.420;8.652;2023-09-08T20:12:07;14.07;;;7.50;;
20703;SDS011;62934;49.420;8.652;2023-09-08T20:14:33;10.05;;;7.10;;
20703;SDS011;62934;49.420;8.652;2023-09-08T20:16:58;8.18;;;7.22;;
20703;SDS011;62934;49.420;8.652;2023-09-08T20:19:24;9.40;;;7.07;;
20703;SDS011;62934;49.420;8.652;2023-09-08T20:21:50;8.55;;;7.38;;
20703;SDS011;62934;49.420;8.652;2023-09-08T20:24:16;11.30;;;7.65;;
20703;SDS011;62934;49.420;8.652;2023-09-08T20:26:43;8.57;;;7.70;;
20703;SDS011;62934;49.420;8.652;2023-09-08T20:29:09;12.45;;;7.72;;
20703;SDS011;62934;49.420;8.652;2023-09-08T20:31:38;8.82;;;7.93;;
20703;SDS011;62934;49.420;8.652;2023-09-08T20:34:03;8.15;;;6.85;;
20703;SDS011;62934;49.420;8.652;2023-09-08T20:36:29;7.60;;;6.72;;
20703;SDS011;62934;49.420;8.652;2023-09-08T20:38:55;10.27;;;7.50;;
20703;SDS011;62934;49.420;8.652;2023-09-08T20:41:20;8.18;;;7.38;;
20703;SDS011;62934;49.420;8.652;2023-09-08T20:43:46;8.60;;;7.10;;
20703;SDS011;62934;49.420;8.652;2023-09-08T20:46:12;9.48;;;6.88;;
20703;SDS011;62934;49.420;8.652;2023-09-08T20:48:38;7.63;;;6.82;;
20703;SDS011;62934;49.420;8.652;2023-09-08T20:51:05;7.93;;;6.38;;
20703;SDS011;62934;49.420;8.652;2023-09-08T20:53:33;8.18;;;6.25;;
20703;SDS011;62934;49.420;8.652;2023-09-08T20:56:00;7.93;;;6.68;;
20703;SDS011;62934;49.420;8.652;2023-09-08T20:58:26;8.65;;;7.13;;
20703;SDS011;62934;49.420;8.652;2023-09-08T21:00:55;7.20;;;6.45;;
20703;SDS011;62934;49.420;8.652;2023-09-08T21:03:21;9.68;;;6.72;;
20703;SDS011;62934;49.420;8.652;2023-09-08T21:05:48;7.50;;;6.38;;
20703;SDS011;62934;49.420;8.652;2023-09-08T21:08:15;8.82;;;6.85;;
20703;SDS011;62934;49.420;8.652;2023-09-08T21:10:40;8.70;;;6.72;;
20703;SDS011;62934;49.420;8.652;2023-09-08T21:13:07;10.85;;;6.85;;
20703;SDS011;62934;49.420;8.652;2023-09-08T21:15:33;7.07;;;6.35;;
20703;SDS011;62934;49.420;8.652;2023-09-08T21:17:58;7.18;;;6.43;;
20703;SDS011;62934;49.420;8.652;2023-09-08T21:20:24;8.50;;;6.78;;
20703;SDS011;62934;49.420;8.652;2023-09-08T21:22:50;8.57;;;6.95;;
20703;SDS011;62934;49.420;8.652;2023-09-08T21:25:16;9.23;;;6.78;;
20703;SDS011;62934;49.420;8.652;2023-09-08T21:27:41;10.05;;;7.10;;
20703;SDS011;62934;49.420;8.652;2023-09-08T21:30:08;9.85;;;6.68;;
20703;SDS011;62934;49.420;8.652;2023-09-08T21:32:33;8.55;;;6.78;;
20703;SDS011;62934;49.420;8.652;2023-09-08T21:34:59;9.75;;;6.63;;
20703;SDS011;62934;49.420;8.652;2023-09-08T21:37:25;8.45;;;6.60;;
20703;SDS011;62934;49.420;8.652;2023-09-08T21:39:50;8.98;;;6.70;;
20703;SDS011;62934;49.420;8.652;2023-09-08T21:42:16;7.80;;;7.00;;
20703;SDS011;62934;49.420;8.652;2023-09-08T21:44:41;9.23;;;7.10;;
20703;SDS011;62934;49.420;8.652;2023-09-08T21:47:07;8.45;;;7.65;;
20703;SDS011;62934;49.420;8.652;2023-09-08T21:49:33;9.05;;;6.55;;
20703;SDS011;62934;49.420;8.652;2023-09-08T21:51:59;9.38;;;6.85;;
20703;SDS011;62934;49.420;8.652;2023-09-08T21:54:25;9.00;;;7.32;;
20703;SDS011;62934;49.420;8.652;2023-09-08T21:56:51;10.27;;;7.07;;
20703;SDS011;62934;49.420;8.652;2023-09-08T21:59:17;7.95;;;6.82;;
20703;SDS011;62934;49.420;8.652;2023-09-08T22:01:42;9.15;;;6.78;;
20703;SDS011;62934;49.420;8.652;2023-09-08T22:04:09;8.80;;;6.82;;
20703;SDS011;62934;49.420;8.652;2023-09-08T22:06:34;8.43;;;6.63;;
20703;SDS011;62934;49.420;8.652;2023-09-08T22:09:00;7.80;;;7.00;;
20703;SDS011;62934;49.420;8.652;2023-09-08T22:11:26;7.93;;;6.22;;
20703;SDS011;62934;49.420;8.652;2023-09-08T22:13:52;7.97;;;6.93;;
20703;SDS011;62934;49.420;8.652;2023-09-08T22:16:17;9.65;;;7.10;;
20703;SDS011;62934;49.420;8.652;2023-09-08T22:18:43;8.68;;;7.07;;
20703;SDS011;62934;49.420;8.652;2023-09-08T22:21:09;9.15;;;7.55;;
20703;SDS011;62934;49.420;8.652;2023-09-08T22:23:35;10.00;;;8.23;;
20703;SDS011;62934;49.420;8.652;2023-09-08T22:26:01;13.10;;;9.10;;
20703;SDS011;62934;49.420;8.652;2023-09-08T22:28:28;14.05;;;9.32;;
20703;SDS011;62934;49.420;8.652;2023-09-08T22:30:53;15.05;;;9.45;;
20703;SDS011;62934;49.420;8.652;2023-09-08T22:33:19;11.13;;;8.93;;
20703;SDS011;62934;49.420;8.652;2023-09-08T22:35:45;10.90;;;9.30;;
20703;SDS011;62934;49.420;8.652;2023-09-08T22:38:10;12.85;;;9.15;;
20703;SDS011;62934;49.420;8.652;2023-09-08T22:40:36;11.93;;;9.40;;
20703;SDS011;62934;49.420;8.652;2023-09-08T22:43:02;12.25;;;9.18;;
20703;SDS011;62934;49.420;8.652;2023-09-08T22:45:28;10.07;;;9.00;;
20703;SDS011;62934;49.420;8.652;2023-09-08T22:47:54;11.00;;;8.65;;
20703;SDS011;62934;49.420;8.652;2023-09-08T22:50:20;10.30;;;8.80;;
20703;SDS011;62934;49.420;8.652;2023-09-08T22:52:48;11.38;;;8.77;;
20703;SDS011;62934;49.420;8.652;2023-09-08T22:55:13;10.70;;;7.80;;
20703;SDS011;62934;49.420;8.652;2023-09-08T22:57:39;10.23;;;7.90;;
20703;SDS011;62934;49.420;8.652;2023-09-08T23:00:05;9.13;;;7.35;;
20703;SDS011;62934;49.420;8.652;2023-09-08T23:02:31;9.68;;;7.38;;
20703;SDS011;62934;49.420;8.652;2023-09-08T23:04:57;8.43;;;7.07;;
20703;SDS011;62934;49.420;8.652;2023-09-08T23:07:22;10.32;;;7.53;;
20703;SDS011;62934;49.420;8.652;2023-09-08T23:09:48;10.32;;;6.65;;
20703;SDS011;62934;49.420;8.652;2023-09-08T23:12:13;7.82;;;6.68;;
20703;SDS011;62934;49.420;8.652;2023-09-08T23:14:39;10.30;;;6.68;;
20703;SDS011;62934;49.420;8.652;2023-09-08T23:17:05;8.15;;;7.10;;
20703;SDS011;62934;49.420;8.652;2023-09-08T23:19:32;10.85;;;7.72;;
20703;SDS011;62934;49.420;8.652;2023-09-08T23:21:57;8.60;;;6.97;;
20703;SDS011;62934;49.420;8.652;2023-09-08T23:24:23;8.75;;;7.22;;
20703;SDS011;62934;49.420;8.652;2023-09-08T23:26:49;8.77;;;6.95;;
20703;SDS011;62934;49.420;8.652;2023-09-08T23:29:15;8.20;;;7.05;;
20703;SDS011;62934;49.420;8.652;2023-09-08T23:31:41;7.47;;;6.68;;
20703;SDS011;62934;49.420;8.652;2023-09-08T23:34:06;7.90;;;7.05;;
20703;SDS011;62934;49.420;8.652;2023-09-08T23:36:37;12.48;;;7.22;;
20703;SDS011;62934;49.420;8.652;2023-09-08T23:39:06;8.68;;;7.20;;
20703;SDS011;62934;49.420;8.652;2023-09-08T23:41:35;9.00;;;7.03;;
20703;SDS011;62934;49.420;8.652;2023-09-08T23:44:02;10.98;;;7.18;;
20703;SDS011;62934;49.420;8.652;2023-09-08T23:46:29;9.27;;;7.47;;
20703;SDS011;62934;49.420;8.652;2023-09-08T23:48:55;7.63;;;6.88;;
20703;SDS011;62934;49.420;8.652;2023-09-08T23:51:20;8.23;;;7.22;;
20703;SDS011;62934;49.420;8.652;2023-09-08T23:53:46;10.07;;;7.13;;
20703;SDS011;62934;49.420;8.652;2023-09-08T23:56:12;7.63;;;6.82;;
20703;SDS011;62934;49.420;8.652;2023-09-08T23:58:37;8.32;;;6.90;;
